sensor_id;sensor_type;location;lat;lon;timestamp;pressure;altitude;pressure_sealevel;temperature;humidity
46778;BME280;32536;47.128;8.746;2024-01-30T00:01:58;92934.41;;;7.28;49.38
46778;BME280;32536;47.128;8.746;2024-01-30T00:04:24;92933.69;;;7.31;49.56
46778;BME280;32536;47.128;8.746;2024-01-30T00:06:51;92943.22;;;7.32;49.58
46778;BME280;32536;47.128;8.746;2024-01-30T00:09:20;92945.13;;;7.31;49.30
46778;BME280;32536;47.128;8.746;2024-01-30T00:11:47;92941.59;;;7.27;48.89
46778;BME280;32536;47.128;8.746;2024-01-30T00:14:14;92940.78;;;7.23;49.81
46778;BME280;32536;47.128;8.746;2024-01-30T00:16:41;92945.31;;;7.22;49.76
46778;BME280;32536;47.128;8.746;2024-01-30T00:19:07;92943.00;;;7.21;49.04
46778;BME280;32536;47.128;8.746;2024-01-30T00:21:34;92944.47;;;7.18;49.20
46778;BME280;32536;47.128;8.746;2024-01-30T00:24:01;92938.78;;;7.20;49.77
46778;BME280;32536;47.128;8.746;2024-01-30T00:26:28;92936.13;;;7.20;49.43
46778;BME280;32536;47.128;8.746;2024-01-30T00:28:55;92940.69;;;7.19;49.62
46778;BME280;32536;47.128;8.746;2024-01-30T00:31:22;92928.22;;;7.24;49.79
46778;BME280;32536;47.128;8.746;2024-01-30T00:33:48;92940.50;;;7.28;49.38
46778;BME280;32536;47.128;8.746;2024-01-30T00:36:15;92943.22;;;7.32;49.39
46778;BME280;32536;47.128;8.746;2024-01-30T00:38:42;92948.56;;;7.32;49.35
46778;BME280;32536;47.128;8.746;2024-01-30T00:41:09;92937.38;;;7.26;49.30
46778;BME280;32536;47.128;8.746;2024-01-30T00:43:36;92940.63;;;7.16;49.44
46778;BME280;32536;47.128;8.746;2024-01-30T00:46:03;92938.94;;;7.08;49.31
46778;BME280;32536;47.128;8.746;2024-01-30T00:48:30;92935.38;;;7.00;49.38
46778;BME280;32536;47.128;8.746;2024-01-30T00:50:57;92938.78;;;7.00;49.78
46778;BME280;32536;47.128;8.746;2024-01-30T00:53:24;92943.00;;;7.01;49.82
46778;BME280;32536;47.128;8.746;2024-01-30T00:55:52;92939.56;;;7.01;49.93
46778;BME280;32536;47.128;8.746;2024-01-30T00:58:18;92938.03;;;7.00;50.10
46778;BME280;32536;47.128;8.746;2024-01-30T01:00:45;92940.97;;;6.95;49.64
46778;BME280;32536;47.128;8.746;2024-01-30T01:03:12;92935.13;;;6.89;50.11
46778;BME280;32536;47.128;8.746;2024-01-30T01:05:39;92934.03;;;6.90;50.34
46778;BME280;32536;47.128;8.746;2024-01-30T01:08:06;92939.41;;;6.94;49.84
46778;BME280;32536;47.128;8.746;2024-01-30T01:10:33;92937.31;;;7.03;49.90
46778;BME280;32536;47.128;8.746;2024-01-30T01:13:00;92932.06;;;7.07;49.35
46778;BME280;32536;47.128;8.746;2024-01-30T01:15:26;92935.78;;;7.02;49.57
46778;BME280;32536;47.128;8.746;2024-01-30T01:17:53;92925.91;;;7.02;49.40
46778;BME280;32536;47.128;8.746;2024-01-30T01:20:20;92934.72;;;7.07;49.53
46778;BME280;32536;47.128;8.746;2024-01-30T01:22:47;92931.59;;;7.01;49.40
46778;BME280;32536;47.128;8.746;2024-01-30T01:25:13;92934.09;;;6.94;49.43
46778;BME280;32536;47.128;8.746;2024-01-30T01:27:40;92936.59;;;6.86;49.56
46778;BME280;32536;47.128;8.746;2024-01-30T01:30:09;92931.56;;;6.81;49.80
46778;BME280;32536;47.128;8.746;2024-01-30T01:32:37;92931.63;;;6.85;50.00
46778;BME280;32536;47.128;8.746;2024-01-30T01:35:04;92935.50;;;6.87;49.73
46778;BME280;32536;47.128;8.746;2024-01-30T01:37:31;92924.31;;;6.82;50.05
46778;BME280;32536;47.128;8.746;2024-01-30T01:39:58;92920.63;;;6.86;49.65
46778;BME280;32536;47.128;8.746;2024-01-30T01:42:25;92930.63;;;6.93;49.82
46778;BME280;32536;47.128;8.746;2024-01-30T01:44:52;92925.75;;;6.95;49.36
46778;BME280;32536;47.128;8.746;2024-01-30T01:47:19;92925.31;;;6.93;49.11
46778;BME280;32536;47.128;8.746;2024-01-30T01:49:46;92922.94;;;6.88;49.14
46778;BME280;32536;47.128;8.746;2024-01-30T01:52:13;92924.47;;;6.89;49.03
46778;BME280;32536;47.128;8.746;2024-01-30T01:54:40;92914.66;;;6.93;49.27
46778;BME280;32536;47.128;8.746;2024-01-30T01:57:07;92918.19;;;6.97;48.79
46778;BME280;32536;47.128;8.746;2024-01-30T01:59:34;92924.97;;;6.95;48.77
46778;BME280;32536;47.128;8.746;2024-01-30T02:02:02;92916.50;;;6.89;49.60
46778;BME280;32536;47.128;8.746;2024-01-30T02:04:29;92920.63;;;6.86;49.23
46778;BME280;32536;47.128;8.746;2024-01-30T02:06:55;92928.97;;;6.85;49.51
46778;BME280;32536;47.128;8.746;2024-01-30T02:09:22;92923.13;;;6.79;49.78
46778;BME280;32536;47.128;8.746;2024-01-30T02:11:49;92918.84;;;6.75;49.35
46778;BME280;32536;47.128;8.746;2024-01-30T02:14:16;92921.50;;;6.75;49.30
46778;BME280;32536;47.128;8.746;2024-01-30T02:16:43;92929.06;;;6.72;49.88
46778;BME280;32536;47.128;8.746;2024-01-30T02:19:09;92926.84;;;6.75;49.23
46778;BME280;32536;47.128;8.746;2024-01-30T02:21:37;92923.69;;;6.69;49.33
46778;BME280;32536;47.128;8.746;2024-01-30T02:24:04;92923.94;;;6.64;49.81
46778;BME280;32536;47.128;8.746;2024-01-30T02:26:32;92923.63;;;6.65;49.66
46778;BME280;32536;47.128;8.746;2024-01-30T02:28:59;92922.47;;;6.66;49.80
46778;BME280;32536;47.128;8.746;2024-01-30T02:31:26;92922.75;;;6.61;49.29
46778;BME280;32536;47.128;8.746;2024-01-30T02:33:52;92925.69;;;6.56;49.47
46778;BME280;32536;47.128;8.746;2024-01-30T02:36:19;92927.16;;;6.53;49.96
46778;BME280;32536;47.128;8.746;2024-01-30T02:38:46;92924.06;;;6.51;49.68
46778;BME280;32536;47.128;8.746;2024-01-30T02:41:13;92927.44;;;6.48;50.24
46778;BME280;32536;47.128;8.746;2024-01-30T02:43:40;92925.53;;;6.49;49.82
46778;BME280;32536;47.128;8.746;2024-01-30T02:46:07;92919.59;;;6.55;49.35
46778;BME280;32536;47.128;8.746;2024-01-30T02:48:33;92926.59;;;6.64;49.94
46778;BME280;32536;47.128;8.746;2024-01-30T02:51:00;92922.91;;;6.68;49.11
46778;BME280;32536;47.128;8.746;2024-01-30T02:53:27;92923.34;;;6.70;49.59
46778;BME280;32536;47.128;8.746;2024-01-30T02:55:54;92924.38;;;6.66;49.65
46778;BME280;32536;47.128;8.746;2024-01-30T02:58:20;92915.78;;;6.56;49.57
46778;BME280;32536;47.128;8.746;2024-01-30T03:00:47;92916.78;;;6.48;49.59
46778;BME280;32536;47.128;8.746;2024-01-30T03:03:14;92918.91;;;6.43;49.79
46778;BME280;32536;47.128;8.746;2024-01-30T03:05:41;92913.94;;;6.41;50.06
46778;BME280;32536;47.128;8.746;2024-01-30T03:08:07;92914.63;;;6.38;49.53
46778;BME280;32536;47.128;8.746;2024-01-30T03:10:34;92905.00;;;6.33;50.22
46778;BME280;32536;47.128;8.746;2024-01-30T03:13:01;92916.84;;;6.36;49.61
46778;BME280;32536;47.128;8.746;2024-01-30T03:15:28;92911.69;;;6.43;49.42
46778;BME280;32536;47.128;8.746;2024-01-30T03:17:54;92905.34;;;6.48;49.37
46778;BME280;32536;47.128;8.746;2024-01-30T03:20:21;92908.44;;;6.50;49.63
46778;BME280;32536;47.128;8.746;2024-01-30T03:22:48;92905.34;;;6.48;49.03
46778;BME280;32536;47.128;8.746;2024-01-30T03:25:15;92907.50;;;6.42;49.62
46778;BME280;32536;47.128;8.746;2024-01-30T03:27:41;92904.69;;;6.35;49.09
46778;BME280;32536;47.128;8.746;2024-01-30T03:30:08;92908.47;;;6.34;49.62
46778;BME280;32536;47.128;8.746;2024-01-30T03:32:35;92902.34;;;6.33;49.13
46778;BME280;32536;47.128;8.746;2024-01-30T03:35:02;92905.63;;;6.27;50.03
46778;BME280;32536;47.128;8.746;2024-01-30T03:37:29;92907.50;;;6.26;49.61
46778;BME280;32536;47.128;8.746;2024-01-30T03:39:56;92900.81;;;6.32;49.39
46778;BME280;32536;47.128;8.746;2024-01-30T03:42:23;92900.03;;;6.32;49.76
46778;BME280;32536;47.128;8.746;2024-01-30T03:44:50;92901.44;;;6.25;49.78
46778;BME280;32536;47.128;8.746;2024-01-30T03:47:21;92904.38;;;6.20;49.90
46778;BME280;32536;47.128;8.746;2024-01-30T03:49:47;92894.84;;;6.19;49.79
46778;BME280;32536;47.128;8.746;2024-01-30T03:52:14;92896.47;;;6.24;49.59
46778;BME280;32536;47.128;8.746;2024-01-30T03:54:41;92902.72;;;6.32;50.03
46778;BME280;32536;47.128;8.746;2024-01-30T03:57:08;92885.34;;;6.38;49.60
46778;BME280;32536;47.128;8.746;2024-01-30T03:59:35;92898.66;;;6.38;49.82
46778;BME280;32536;47.128;8.746;2024-01-30T04:02:01;92903.81;;;6.31;49.72
46778;BME280;32536;47.128;8.746;2024-01-30T04:04:28;92901.78;;;6.24;49.42
46778;BME280;32536;47.128;8.746;2024-01-30T04:06:55;92903.34;;;6.25;49.71
46778;BME280;32536;47.128;8.746;2024-01-30T04:09:22;92898.41;;;6.27;49.84
46778;BME280;32536;47.128;8.746;2024-01-30T04:11:48;92898.69;;;6.22;49.47
46778;BME280;32536;47.128;8.746;2024-01-30T04:14:15;92895.94;;;6.18;49.53
46778;BME280;32536;47.128;8.746;2024-01-30T04:16:42;92900.59;;;6.21;49.58
46778;BME280;32536;47.128;8.746;2024-01-30T04:19:09;92898.00;;;6.25;49.79
46778;BME280;32536;47.128;8.746;2024-01-30T04:21:35;92898.00;;;6.25;49.30
46778;BME280;32536;47.128;8.746;2024-01-30T04:24:02;92894.84;;;6.19;49.11
46778;BME280;32536;47.128;8.746;2024-01-30T04:26:29;92893.13;;;6.11;49.51
46778;BME280;32536;47.128;8.746;2024-01-30T04:28:56;92892.00;;;6.12;49.42
46778;BME280;32536;47.128;8.746;2024-01-30T04:31:23;92895.50;;;6.16;49.26
46778;BME280;32536;47.128;8.746;2024-01-30T04:33:49;92892.09;;;6.16;49.67
46778;BME280;32536;47.128;8.746;2024-01-30T04:36:16;92894.56;;;6.08;49.45
46778;BME280;32536;47.128;8.746;2024-01-30T04:38:43;92892.94;;;6.04;49.59
46778;BME280;32536;47.128;8.746;2024-01-30T04:41:10;92898.69;;;6.06;49.81
46778;BME280;32536;47.128;8.746;2024-01-30T04:43:36;92900.75;;;6.13;49.60
46778;BME280;32536;47.128;8.746;2024-01-30T04:46:04;92898.25;;;6.20;49.33
46778;BME280;32536;47.128;8.746;2024-01-30T04:48:31;92901.06;;;6.27;49.16
46778;BME280;32536;47.128;8.746;2024-01-30T04:50:58;92896.63;;;6.31;48.99
46778;BME280;32536;47.128;8.746;2024-01-30T04:53:26;92894.81;;;6.35;49.11
46778;BME280;32536;47.128;8.746;2024-01-30T04:55:53;92896.19;;;6.29;48.93
46778;BME280;32536;47.128;8.746;2024-01-30T04:58:20;92896.38;;;6.20;49.32
46778;BME280;32536;47.128;8.746;2024-01-30T05:00:47;92889.50;;;6.19;49.46
46778;BME280;32536;47.128;8.746;2024-01-30T05:03:19;92894.03;;;6.19;49.31
46778;BME280;32536;47.128;8.746;2024-01-30T05:05:48;92898.88;;;6.13;49.70
46778;BME280;32536;47.128;8.746;2024-01-30T05:08:15;92892.69;;;6.09;49.84
46778;BME280;32536;47.128;8.746;2024-01-30T05:10:42;92896.22;;;6.13;49.29
46778;BME280;32536;47.128;8.746;2024-01-30T05:13:08;92897.84;;;6.18;49.58
46778;BME280;32536;47.128;8.746;2024-01-30T05:15:35;92891.31;;;6.15;49.50
46778;BME280;32536;47.128;8.746;2024-01-30T05:18:02;92898.09;;;6.13;49.65
46778;BME280;32536;47.128;8.746;2024-01-30T05:20:29;92890.53;;;6.15;49.98
46778;BME280;32536;47.128;8.746;2024-01-30T05:22:56;92891.25;;;6.12;49.78
46778;BME280;32536;47.128;8.746;2024-01-30T05:25:22;92896.41;;;6.04;49.64
46778;BME280;32536;47.128;8.746;2024-01-30T05:27:50;92905.84;;;6.02;50.24
46778;BME280;32536;47.128;8.746;2024-01-30T05:30:16;92904.78;;;6.06;49.90
46778;BME280;32536;47.128;8.746;2024-01-30T05:32:43;92906.69;;;6.06;49.74
46778;BME280;32536;47.128;8.746;2024-01-30T05:35:10;92908.91;;;6.04;49.80
46778;BME280;32536;47.128;8.746;2024-01-30T05:37:37;92918.53;;;6.08;49.36
46778;BME280;32536;47.128;8.746;2024-01-30T05:40:04;92910.28;;;6.14;49.35
46778;BME280;32536;47.128;8.746;2024-01-30T05:42:31;92910.09;;;6.06;49.18
46778;BME280;32536;47.128;8.746;2024-01-30T05:44:57;92910.81;;;6.03;49.33
46778;BME280;32536;47.128;8.746;2024-01-30T05:47:24;92914.56;;;6.02;49.12
46778;BME280;32536;47.128;8.746;2024-01-30T05:49:51;92913.81;;;6.02;49.22
46778;BME280;32536;47.128;8.746;2024-01-30T05:52:18;92917.47;;;5.97;49.52
46778;BME280;32536;47.128;8.746;2024-01-30T05:54:44;92922.72;;;5.93;49.41
46778;BME280;32536;47.128;8.746;2024-01-30T05:57:11;92925.44;;;5.97;49.52
46778;BME280;32536;47.128;8.746;2024-01-30T05:59:38;92926.69;;;6.00;49.17
46778;BME280;32536;47.128;8.746;2024-01-30T06:02:05;92925.13;;;5.99;49.79
46778;BME280;32536;47.128;8.746;2024-01-30T06:04:31;92920.81;;;5.94;49.49
46778;BME280;32536;47.128;8.746;2024-01-30T06:06:58;92924.66;;;5.97;49.64
46778;BME280;32536;47.128;8.746;2024-01-30T06:09:28;92930.19;;;6.04;49.89
46778;BME280;32536;47.128;8.746;2024-01-30T06:11:57;92928.81;;;6.10;49.79
46778;BME280;32536;47.128;8.746;2024-01-30T06:14:24;92927.44;;;6.16;49.38
46778;BME280;32536;47.128;8.746;2024-01-30T06:16:51;92932.66;;;6.13;49.67
46778;BME280;32536;47.128;8.746;2024-01-30T06:19:17;92934.41;;;6.05;49.77
46778;BME280;32536;47.128;8.746;2024-01-30T06:21:44;92932.00;;;6.00;49.49
46778;BME280;32536;47.128;8.746;2024-01-30T06:24:11;92936.31;;;6.04;50.02
46778;BME280;32536;47.128;8.746;2024-01-30T06:26:38;92935.25;;;6.09;49.72
46778;BME280;32536;47.128;8.746;2024-01-30T06:29:04;92937.66;;;6.14;49.64
46778;BME280;32536;47.128;8.746;2024-01-30T06:31:32;92935.50;;;6.20;49.67
46778;BME280;32536;47.128;8.746;2024-01-30T06:33:58;92932.16;;;6.23;49.45
46778;BME280;32536;47.128;8.746;2024-01-30T06:36:25;92937.94;;;6.25;49.08
46778;BME280;32536;47.128;8.746;2024-01-30T06:38:52;92942.09;;;6.26;49.33
46778;BME280;32536;47.128;8.746;2024-01-30T06:41:19;92937.06;;;6.21;49.00
46778;BME280;32536;47.128;8.746;2024-01-30T06:43:46;92945.66;;;6.14;49.08
46778;BME280;32536;47.128;8.746;2024-01-30T06:46:12;92949.06;;;6.15;49.25
46778;BME280;32536;47.128;8.746;2024-01-30T06:48:39;92940.75;;;6.16;49.59
46778;BME280;32536;47.128;8.746;2024-01-30T06:51:06;92950.63;;;6.16;49.34
46778;BME280;32536;47.128;8.746;2024-01-30T06:53:33;92957.56;;;6.20;48.99
46778;BME280;32536;47.128;8.746;2024-01-30T06:56:00;92953.44;;;6.23;49.28
46778;BME280;32536;47.128;8.746;2024-01-30T06:58:26;92952.34;;;6.24;49.51
46778;BME280;32536;47.128;8.746;2024-01-30T07:00:54;92957.84;;;6.15;48.86
46778;BME280;32536;47.128;8.746;2024-01-30T07:03:21;92955.31;;;6.06;49.55
46778;BME280;32536;47.128;8.746;2024-01-30T07:05:48;92957.81;;;5.99;49.97
46778;BME280;32536;47.128;8.746;2024-01-30T07:08:15;92965.13;;;6.02;49.89
46778;BME280;32536;47.128;8.746;2024-01-30T07:10:43;92959.53;;;6.07;50.00
46778;BME280;32536;47.128;8.746;2024-01-30T07:13:11;92968.63;;;6.06;49.73
46778;BME280;32536;47.128;8.746;2024-01-30T07:15:38;92961.69;;;6.02;50.35
46778;BME280;32536;47.128;8.746;2024-01-30T07:18:05;92968.44;;;5.99;50.10
46778;BME280;32536;47.128;8.746;2024-01-30T07:20:32;92963.66;;;6.05;49.88
46778;BME280;32536;47.128;8.746;2024-01-30T07:22:59;92974.13;;;6.14;49.92
46778;BME280;32536;47.128;8.746;2024-01-30T07:25:26;92968.53;;;6.19;49.85
46778;BME280;32536;47.128;8.746;2024-01-30T07:27:53;92966.06;;;6.26;49.54
46778;BME280;32536;47.128;8.746;2024-01-30T07:30:20;92957.84;;;6.31;49.56
46778;BME280;32536;47.128;8.746;2024-01-30T07:32:47;92972.06;;;6.39;49.97
46778;BME280;32536;47.128;8.746;2024-01-30T07:35:14;92979.78;;;6.44;49.20
46778;BME280;32536;47.128;8.746;2024-01-30T07:37:41;92982.53;;;6.48;48.95
46778;BME280;32536;47.128;8.746;2024-01-30T07:40:08;92975.34;;;6.48;49.53
46778;BME280;32536;47.128;8.746;2024-01-30T07:42:35;92983.66;;;6.47;49.03
46778;BME280;32536;47.128;8.746;2024-01-30T07:45:02;92989.25;;;6.41;49.54
46778;BME280;32536;47.128;8.746;2024-01-30T07:47:28;92988.81;;;6.39;49.43
46778;BME280;32536;47.128;8.746;2024-01-30T07:49:55;92995.00;;;6.44;49.40
46778;BME280;32536;47.128;8.746;2024-01-30T07:52:22;92989.41;;;6.49;49.42
46778;BME280;32536;47.128;8.746;2024-01-30T07:58:18;92986.16;;;6.55;49.27
46778;BME280;32536;47.128;8.746;2024-01-30T08:00:45;92996.38;;;6.53;49.15
46778;BME280;32536;47.128;8.746;2024-01-30T08:03:12;92991.72;;;6.50;49.00
46778;BME280;32536;47.128;8.746;2024-01-30T08:05:38;92996.56;;;6.45;49.21
46778;BME280;32536;47.128;8.746;2024-01-30T08:08:05;93000.25;;;6.40;49.24
46778;BME280;32536;47.128;8.746;2024-01-30T08:10:32;93001.34;;;6.39;50.28
46778;BME280;32536;47.128;8.746;2024-01-30T08:12:59;93004.78;;;6.39;49.46
46778;BME280;32536;47.128;8.746;2024-01-30T08:15:26;92993.03;;;6.40;49.42
46778;BME280;32536;47.128;8.746;2024-01-30T08:17:52;92997.31;;;6.45;49.74
46778;BME280;32536;47.128;8.746;2024-01-30T08:20:24;93002.72;;;6.49;49.52
46778;BME280;32536;47.128;8.746;2024-01-30T08:22:51;93002.81;;;6.52;49.34
46778;BME280;32536;47.128;8.746;2024-01-30T08:25:18;93001.69;;;6.53;49.40
46778;BME280;32536;47.128;8.746;2024-01-30T08:27:45;92997.91;;;6.54;49.34
46778;BME280;32536;47.128;8.746;2024-01-30T08:30:12;93005.13;;;6.54;49.04
46778;BME280;32536;47.128;8.746;2024-01-30T08:32:39;92996.38;;;6.53;49.16
46778;BME280;32536;47.128;8.746;2024-01-30T08:35:06;92996.38;;;6.53;49.64
46778;BME280;32536;47.128;8.746;2024-01-30T08:37:32;92997.91;;;6.54;49.74
46778;BME280;32536;47.128;8.746;2024-01-30T08:39:59;93000.66;;;6.58;49.60
46778;BME280;32536;47.128;8.746;2024-01-30T08:42:27;92998.09;;;6.62;49.88
46778;BME280;32536;47.128;8.746;2024-01-30T08:44:54;92999.28;;;6.64;49.38
46778;BME280;32536;47.128;8.746;2024-01-30T08:47:21;92995.25;;;6.70;49.22
46778;BME280;32536;47.128;8.746;2024-01-30T08:49:48;92996.53;;;6.77;49.58
46778;BME280;32536;47.128;8.746;2024-01-30T08:52:15;93003.13;;;6.83;49.86
46778;BME280;32536;47.128;8.746;2024-01-30T08:54:42;93005.50;;;6.88;49.83
46778;BME280;32536;47.128;8.746;2024-01-30T08:57:09;93004.47;;;6.93;49.77
46778;BME280;32536;47.128;8.746;2024-01-30T08:59:35;93009.88;;;6.96;49.24
46778;BME280;32536;47.128;8.746;2024-01-30T09:02:02;93003.09;;;6.99;49.67
46778;BME280;32536;47.128;8.746;2024-01-30T09:04:30;93003.94;;;7.03;49.80
46778;BME280;32536;47.128;8.746;2024-01-30T09:06:56;93006.75;;;7.10;49.64
46778;BME280;32536;47.128;8.746;2024-01-30T09:09:23;93003.41;;;7.13;49.87
46778;BME280;32536;47.128;8.746;2024-01-30T09:11:50;93005.78;;;7.18;49.91
46778;BME280;32536;47.128;8.746;2024-01-30T09:14:17;93004.75;;;7.23;49.81
46778;BME280;32536;47.128;8.746;2024-01-30T09:17:02;93006.00;;;7.29;49.36
46778;BME280;32536;47.128;8.746;2024-01-30T09:19:28;93014.59;;;7.39;49.72
46778;BME280;32536;47.128;8.746;2024-01-30T09:21:55;93014.66;;;7.42;49.95
46778;BME280;32536;47.128;8.746;2024-01-30T09:24:22;93007.06;;;7.44;50.07
46778;BME280;32536;47.128;8.746;2024-01-30T09:26:49;93011.72;;;7.47;49.96
46778;BME280;32536;47.128;8.746;2024-01-30T09:29:16;93006.09;;;7.52;49.68
46778;BME280;32536;47.128;8.746;2024-01-30T09:31:44;93005.81;;;7.58;50.23
46778;BME280;32536;47.128;8.746;2024-01-30T09:34:11;93002.09;;;7.62;50.23
46778;BME280;32536;47.128;8.746;2024-01-30T09:36:38;93009.47;;;7.69;50.16
46778;BME280;32536;47.128;8.746;2024-01-30T09:39:05;93016.13;;;7.79;50.03
46778;BME280;32536;47.128;8.746;2024-01-30T09:41:37;93008.25;;;7.86;50.21
46778;BME280;32536;47.128;8.746;2024-01-30T09:44:12;93009.59;;;7.96;50.01
46778;BME280;32536;47.128;8.746;2024-01-30T09:46:40;93009.75;;;8.07;49.80
46778;BME280;32536;47.128;8.746;2024-01-30T09:49:08;93006.88;;;8.15;49.86
46778;BME280;32536;47.128;8.746;2024-01-30T09:51:35;93001.69;;;8.26;49.77
46778;BME280;32536;47.128;8.746;2024-01-30T09:54:02;93002.97;;;8.32;49.89
46778;BME280;32536;47.128;8.746;2024-01-30T09:56:29;92997.34;;;8.38;49.94
46778;BME280;32536;47.128;8.746;2024-01-30T09:58:56;93003.13;;;8.43;49.44
46778;BME280;32536;47.128;8.746;2024-01-30T10:01:23;93005.94;;;8.51;49.89
46778;BME280;32536;47.128;8.746;2024-01-30T10:03:50;93006.00;;;8.54;49.57
46778;BME280;32536;47.128;8.746;2024-01-30T10:06:21;93001.19;;;8.63;49.56
46778;BME280;32536;47.128;8.746;2024-01-30T10:08:48;93005.16;;;8.73;49.34
46778;BME280;32536;47.128;8.746;2024-01-30T10:11:15;93000.34;;;8.83;49.55
46778;BME280;32536;47.128;8.746;2024-01-30T10:13:42;92997.75;;;8.90;49.12
46778;BME280;32536;47.128;8.746;2024-01-30T10:16:08;92995.19;;;8.97;49.11
46778;BME280;32536;47.128;8.746;2024-01-30T10:18:35;92999.88;;;9.04;49.37
46778;BME280;32536;47.128;8.746;2024-01-30T10:21:02;93002.97;;;9.06;49.50
46778;BME280;32536;47.128;8.746;2024-01-30T10:23:29;93001.06;;;9.06;49.38
46778;BME280;32536;47.128;8.746;2024-01-30T10:25:56;92998.06;;;9.11;49.34
46778;BME280;32536;47.128;8.746;2024-01-30T10:28:23;93003.50;;;9.19;49.37
46778;BME280;32536;47.128;8.746;2024-01-30T10:30:59;93004.41;;;9.26;48.60
46778;BME280;32536;47.128;8.746;2024-01-30T10:33:26;93000.66;;;9.35;49.38
46778;BME280;32536;47.128;8.746;2024-01-30T10:36:00;93000.75;;;9.42;48.75
46778;BME280;32536;47.128;8.746;2024-01-30T10:38:29;92997.03;;;9.50;49.19
46778;BME280;32536;47.128;8.746;2024-01-30T10:40:57;92997.13;;;9.57;49.20
46778;BME280;32536;47.128;8.746;2024-01-30T10:43:33;92986.88;;;9.63;48.52
46778;BME280;32536;47.128;8.746;2024-01-30T10:46:10;92989.63;;;9.70;48.46
46778;BME280;32536;47.128;8.746;2024-01-30T10:48:42;92985.91;;;9.78;48.85
46778;BME280;32536;47.128;8.746;2024-01-30T10:51:13;92979.44;;;9.83;48.64
46778;BME280;32536;47.128;8.746;2024-01-30T10:53:41;92981.44;;;9.90;49.17
46778;BME280;32536;47.128;8.746;2024-01-30T10:56:10;92973.09;;;9.95;49.29
46778;BME280;32536;47.128;8.746;2024-01-30T10:58:37;92972.38;;;10.02;49.27
46778;BME280;32536;47.128;8.746;2024-01-30T11:01:04;92973.56;;;10.08;49.19
46778;BME280;32536;47.128;8.746;2024-01-30T11:03:32;92974.78;;;10.14;49.61
46778;BME280;32536;47.128;8.746;2024-01-30T11:06:02;92969.50;;;10.21;49.52
46778;BME280;32536;47.128;8.746;2024-01-30T11:08:32;92969.94;;;10.27;48.88
46778;BME280;32536;47.128;8.746;2024-01-30T11:10:58;92968.50;;;10.37;49.75
46778;BME280;32536;47.128;8.746;2024-01-30T11:13:31;92964.75;;;10.45;48.49
46778;BME280;32536;47.128;8.746;2024-01-30T11:16:05;92958.69;;;10.52;47.99
46778;BME280;32536;47.128;8.746;2024-01-30T11:18:33;92964.50;;;10.61;49.24
46778;BME280;32536;47.128;8.746;2024-01-30T11:21:01;92968.00;;;10.69;49.14
46778;BME280;32536;47.128;8.746;2024-01-30T11:23:32;92965.38;;;10.76;49.24
46778;BME280;32536;47.128;8.746;2024-01-30T11:26:00;92963.50;;;10.80;49.28
46778;BME280;32536;47.128;8.746;2024-01-30T11:28:32;92963.16;;;10.85;47.88
46778;BME280;32536;47.128;8.746;2024-01-30T11:31:05;92957.44;;;10.91;48.57
46778;BME280;32536;47.128;8.746;2024-01-30T11:33:33;92958.59;;;10.97;49.37
46778;BME280;32536;47.128;8.746;2024-01-30T11:36:01;92956.34;;;11.02;49.27
46778;BME280;32536;47.128;8.746;2024-01-30T11:38:28;92949.88;;;11.07;49.24
46778;BME280;32536;47.128;8.746;2024-01-30T11:40:55;92948.38;;;11.13;49.47
46778;BME280;32536;47.128;8.746;2024-01-30T11:43:23;92949.16;;;11.21;48.94
46778;BME280;32536;47.128;8.746;2024-01-30T11:45:50;92941.53;;;11.27;49.20
46778;BME280;32536;47.128;8.746;2024-01-30T11:48:18;92943.09;;;11.35;49.31
46778;BME280;32536;47.128;8.746;2024-01-30T11:50:45;92940.44;;;11.42;49.78
46778;BME280;32536;47.128;8.746;2024-01-30T11:53:12;92939.72;;;11.52;49.82
46778;BME280;32536;47.128;8.746;2024-01-30T11:55:38;92939.38;;;11.61;49.35
46778;BME280;32536;47.128;8.746;2024-01-30T11:58:05;92938.63;;;11.68;49.58
46778;BME280;32536;47.128;8.746;2024-01-30T12:00:32;92936.34;;;11.77;49.46
46778;BME280;32536;47.128;8.746;2024-01-30T12:02:59;92936.78;;;11.87;49.50
46778;BME280;32536;47.128;8.746;2024-01-30T12:05:26;92932.97;;;11.98;49.16
46778;BME280;32536;47.128;8.746;2024-01-30T12:07:54;92938.00;;;12.07;48.86
46778;BME280;32536;47.128;8.746;2024-01-30T12:10:24;92939.16;;;12.13;48.51
46778;BME280;32536;47.128;8.746;2024-01-30T12:12:52;92936.84;;;12.19;48.84
46778;BME280;32536;47.128;8.746;2024-01-30T12:15:21;92930.31;;;12.24;48.78
46778;BME280;32536;47.128;8.746;2024-01-30T12:17:48;92930.72;;;12.29;48.97
46778;BME280;32536;47.128;8.746;2024-01-30T12:20:18;92936.84;;;12.37;47.96
46778;BME280;32536;47.128;8.746;2024-01-30T12:22:48;92934.19;;;12.44;48.30
46778;BME280;32536;47.128;8.746;2024-01-30T12:25:20;92933.78;;;12.49;47.39
46778;BME280;32536;47.128;8.746;2024-01-30T12:27:50;92929.94;;;12.54;48.46
46778;BME280;32536;47.128;8.746;2024-01-30T12:30:19;92933.38;;;12.58;48.13
46778;BME280;32536;47.128;8.746;2024-01-30T12:32:47;92929.94;;;12.61;48.51
46778;BME280;32536;47.128;8.746;2024-01-30T12:35:17;92923.81;;;12.57;48.31
46778;BME280;32536;47.128;8.746;2024-01-30T12:37:47;92925.31;;;12.58;48.42
46778;BME280;32536;47.128;8.746;2024-01-30T12:40:14;92924.19;;;12.63;48.29
46778;BME280;32536;47.128;8.746;2024-01-30T12:42:42;92929.94;;;12.69;48.48
46778;BME280;32536;47.128;8.746;2024-01-30T12:45:13;92931.47;;;12.77;47.54
46778;BME280;32536;47.128;8.746;2024-01-30T12:47:41;92929.53;;;12.85;47.87
46778;BME280;32536;47.128;8.746;2024-01-30T12:50:08;92926.06;;;12.95;48.03
46778;BME280;32536;47.128;8.746;2024-01-30T12:52:35;92927.22;;;12.97;46.67
46778;BME280;32536;47.128;8.746;2024-01-30T12:55:03;92928.38;;;13.04;47.54
46778;BME280;32536;47.128;8.746;2024-01-30T12:57:30;92927.56;;;13.07;46.88
46778;BME280;32536;47.128;8.746;2024-01-30T12:59:56;92926.81;;;13.13;47.40
46778;BME280;32536;47.128;8.746;2024-01-30T13:02:24;92930.63;;;13.20;46.13
46778;BME280;32536;47.128;8.746;2024-01-30T13:04:52;92923.28;;;13.31;45.67
46778;BME280;32536;47.128;8.746;2024-01-30T13:07:18;92921.34;;;13.42;45.53
46778;BME280;32536;47.128;8.746;2024-01-30T13:09:46;92925.53;;;13.51;44.52
46778;BME280;32536;47.128;8.746;2024-01-30T13:12:13;92923.56;;;13.62;44.07
46778;BME280;32536;47.128;8.746;2024-01-30T13:14:40;92927.75;;;13.74;44.39